Time,TemperatureF,DewpointF,PressureIn,WindDirection,WindDirectionDegrees,WindSpeedMPH,WindSpeedGustMPH,Humidity,HourlyPrecipIn,Conditions,Clouds,dailyrainin,SoftwareType,DateUTC
2013-11-02 00:22:00,46.0,39.0,29.97,NNW,332,2.0,7.0,76,0.00,,,0.00,,2013-11-02 05:22:00,
2013-11-02 00:34:00,46.0,39.0,29.97,NNW,332,2.0,7.0,76,0.00,,,0.00,,2013-11-02 05:34:00,
2013-11-02 00:42:00,46.0,39.0,29.97,NNW,332,2.0,7.0,76,0.00,,,0.00,,2013-11-02 05:42:00,
2013-11-02 00:52:00,46.0,39.0,29.97,NNW,332,2.0,7.0,76,0.00,,,0.00,,2013-11-02 05:52:00,
2013-11-02 01:02:00,46.0,39.0,29.97,NNW,332,2.0,7.0,76,0.00,,,0.00,,2013-11-02 06:02:00,
2013-11-02 02:22:00,45.0,38.0,29.99,WSW,245,4.0,8.0,77,0.00,,,0.00,,2013-11-02 07:22:00,
2013-11-02 02:32:00,45.0,38.0,29.99,WSW,245,4.0,8.0,77,0.00,,,0.00,,2013-11-02 07:32:00,
2013-11-02 02:42:00,45.0,38.0,29.99,WSW,245,4.0,8.0,77,0.00,,,0.00,,2013-11-02 07:42:00,
2013-11-02 02:52:00,45.0,38.0,29.99,WSW,245,4.0,8.0,77,0.00,,,0.00,,2013-11-02 07:52:00,
2013-11-02 03:02:00,45.0,38.0,29.99,WSW,245,4.0,8.0,77,0.00,,,0.00,,2013-11-02 08:02:00,
2013-11-02 04:03:00,44.0,38.0,30.00,NW,326,3.0,11.0,78,0.00,,,0.00,,2013-11-02 09:03:00,
2013-11-02 04:22:00,44.0,38.0,30.00,NW,326,3.0,11.0,78,0.00,,,0.00,,2013-11-02 09:22:00,
2013-11-02 04:33:00,44.0,38.0,30.00,NW,326,3.0,11.0,78,0.00,,,0.00,,2013-11-02 09:33:00,
2013-11-02 04:43:00,44.0,38.0,30.00,NW,326,3.0,11.0,78,0.00,,,0.00,,2013-11-02 09:43:00,
2013-11-02 04:53:00,44.0,38.0,30.00,NW,326,3.0,11.0,78,0.00,,,0.00,,2013-11-02 09:53:00,
2013-11-02 06:22:00,43.0,37.0,30.06,NNW,348,4.0,13.0,78,0.00,,,0.00,,2013-11-02 11:22:00,
2013-11-02 06:33:00,43.0,37.0,30.06,NNW,348,4.0,13.0,78,0.00,,,0.00,,2013-11-02 11:33:00,
2013-11-02 06:42:00,43.0,37.0,30.06,NNW,348,4.0,13.0,78,0.00,,,0.00,,2013-11-02 11:42:00,
2013-11-02 06:52:00,43.0,37.0,30.06,NNW,348,4.0,13.0,78,0.00,,,0.00,,2013-11-02 11:52:00,
2013-11-02 07:02:00,43.0,37.0,30.06,NNW,348,4.0,13.0,78,0.00,,,0.00,,2013-11-02 12:02:00,
2013-11-02 08:22:00,41.0,36.0,30.10,NW,314,4.0,8.0,83,0.00,,,0.00,,2013-11-02 13:22:00,
2013-11-02 08:32:00,41.0,36.0,30.10,NW,314,4.0,8.0,83,0.00,,,0.00,,2013-11-02 13:32:00,
2013-11-02 08:42:00,41.0,36.0,30.10,NW,314,4.0,8.0,83,0.00,,,0.00,,2013-11-02 13:42:00,
2013-11-02 08:52:00,41.0,36.0,30.10,NW,314,4.0,8.0,83,0.00,,,0.00,,2013-11-02 13:52:00,
2013-11-02 09:02:00,41.0,36.0,30.10,NW,314,4.0,8.0,83,0.00,,,0.00,,2013-11-02 14:02:00,
2013-11-02 10:03:00,44.0,37.0,30.16,North,356,6.0,15.0,75,0.00,,,0.00,,2013-11-02 15:03:00,
2013-11-02 10:22:00,44.0,37.0,30.16,North,356,6.0,15.0,75,0.00,,,0.00,,2013-11-02 15:22:00,
2013-11-02 10:33:00,44.0,37.0,30.16,North,356,6.0,15.0,75,0.00,,,0.00,,2013-11-02 15:33:00,
2013-11-02 10:43:00,44.0,37.0,30.16,North,356,6.0,15.0,75,0.00,,,0.00,,2013-11-02 15:43:00,
2013-11-02 10:53:00,44.0,37.0,30.16,North,356,6.0,15.0,75,0.00,,,0.00,,2013-11-02 15:53:00,
2013-11-02 12:02:00,49.0,38.0,30.18,NE,53,8.0,15.0,65,0.00,,,0.00,,2013-11-02 17:02:00,
2013-11-02 12:22:00,49.0,38.0,30.18,NE,53,8.0,15.0,65,0.00,,,0.00,,2013-11-02 17:22:00,
2013-11-02 12:34:00,49.0,38.0,30.18,NE,53,8.0,15.0,65,0.00,,,0.00,,2013-11-02 17:34:00,
2013-11-02 12:43:00,49.0,38.0,30.18,NE,53,8.0,15.0,65,0.00,,,0.00,,2013-11-02 17:43:00,
2013-11-02 12:53:00,49.0,38.0,30.18,NE,53,8.0,15.0,65,0.00,,,0.00,,2013-11-02 17:53:00,
2013-11-02 14:22:00,54.0,35.0,30.16,NNW,335,5.0,12.0,48,0.00,,,0.00,,2013-11-02 19:22:00,
2013-11-02 14:32:00,54.0,35.0,30.16,NNW,335,5.0,12.0,48,0.00,,,0.00,,2013-11-02 19:32:00,
2013-11-02 14:42:00,54.0,35.0,30.16,NNW,335,5.0,12.0,48,0.00,,,0.00,,2013-11-02 19:42:00,
2013-11-02 14:52:00,54.0,35.0,30.16,NNW,335,5.0,12.0,48,0.00,,,0.00,,2013-11-02 19:52:00,
2013-11-02 15:02:00,54.0,35.0,30.16,NNW,335,5.0,12.0,48,0.00,,,0.00,,2013-11-02 20:02:00,
2013-11-02 16:02:00,56.0,33.0,30.15,NNW,330,3.0,13.0,42,0.00,,,0.00,,2013-11-02 21:02:00,
2013-11-02 16:22:00,56.0,33.0,30.15,NNW,330,3.0,13.0,42,0.00,,,0.00,,2013-11-02 21:22:00,
2013-11-02 16:33:00,56.0,33.0,30.15,NNW,330,3.0,13.0,42,0.00,,,0.00,,2013-11-02 21:33:00,
2013-11-02 16:44:00,56.0,33.0,30.15,NNW,330,3.0,13.0,42,0.00,,,0.00,,2013-11-02 21:44:00,
2013-11-02 16:54:00,56.0,33.0,30.15,NNW,330,3.0,13.0,42,0.00,,,0.00,,2013-11-02 21:54:00,
2013-11-02 18:22:00,55.0,33.0,30.16,NW,325,1.0,6.0,43,0.00,,,0.00,,2013-11-02 23:22:00,
2013-11-02 18:34:00,55.0,33.0,30.16,NW,325,1.0,6.0,43,0.00,,,0.00,,2013-11-02 23:34:00,
2013-11-02 18:42:00,55.0,33.0,30.16,NW,325,1.0,6.0,43,0.00,,,0.00,,2013-11-02 23:42:00,
2013-11-02 18:52:00,55.0,33.0,30.16,NW,325,1.0,6.0,43,0.00,,,0.00,,2013-11-02 23:52:00,
2013-11-02 19:01:00,55.0,33.0,30.16,NW,325,1.0,6.0,43,0.00,,,0.00,,2013-11-03 00:01:00,
2013-11-02 20:02:00,43.0,37.0,30.16,NNW,329,0.0,0.0,78,0.00,,,0.00,,2013-11-03 01:02:00,
2013-11-02 20:22:00,43.0,37.0,30.16,NNW,329,0.0,0.0,78,0.00,,,0.00,,2013-11-03 01:22:00,
2013-11-02 20:32:00,43.0,37.0,30.16,NNW,329,0.0,0.0,78,0.00,,,0.00,,2013-11-03 01:32:00,
2013-11-02 20:42:00,43.0,37.0,30.16,NNW,329,0.0,0.0,78,0.00,,,0.00,,2013-11-03 01:42:00,
2013-11-02 20:52:00,43.0,37.0,30.16,NNW,329,0.0,0.0,78,0.00,,,0.00,,2013-11-03 01:52:00,
2013-11-02 22:02:00,-999.0,-99.9,30.16,WNW,295,0.0,0.0,-999,-99.99,,,-99.99,,2013-11-03 03:02:00,
2013-11-02 22:22:00,39.0,36.0,30.16,WNW,295,0.0,0.0,89,0.00,,,0.00,,2013-11-03 03:22:00,
2013-11-02 22:33:00,39.0,36.0,30.16,WNW,295,0.0,0.0,89,0.00,,,0.00,,2013-11-03 03:33:00,
2013-11-02 22:45:00,39.0,36.0,30.16,WNW,295,0.0,0.0,89,0.00,,,0.00,,2013-11-03 03:45:00,
2013-11-02 22:54:00,39.0,36.0,30.16,WNW,295,0.0,0.0,89,0.00,,,0.00,,2013-11-03 03:54:00,